createdAt,value
2023-02-06T00:00:43.801Z,0.37
2023-02-06T00:05:39.104Z,0.62
2023-02-06T00:10:35.288Z,0.65
2023-02-06T00:15:32.672Z,0.88
2023-02-06T00:20:28.840Z,1.3
2023-02-06T00:25:25.105Z,0.72
2023-02-06T00:30:20.355Z,1.06
2023-02-06T00:35:16.643Z,1.14
2023-02-06T00:40:12.895Z,1.02
2023-02-06T00:45:09.139Z,1.28
2023-02-06T00:50:07.396Z,1.26
2023-02-06T00:55:03.659Z,1.01
2023-02-06T00:59:59.937Z,0.91
2023-02-06T01:04:56.189Z,0.94
2023-02-06T01:09:52.407Z,1.04
2023-02-06T01:14:47.691Z,0.9
2023-02-06T01:19:43.957Z,1.98
2023-02-06T01:24:40.220Z,0.87
2023-02-06T01:29:36.476Z,1.94
2023-02-06T01:34:32.729Z,1.75
2023-02-06T01:39:29.026Z,1.51
2023-02-06T01:44:34.231Z,1.92
2023-02-06T01:49:33.441Z,1.43
2023-02-06T01:54:31.771Z,0.64
2023-02-06T01:59:29.998Z,1.17
2023-02-06T02:04:28.235Z,0.15
2023-02-06T02:09:25.466Z,0.43
2023-02-06T02:14:22.753Z,-0.18
2023-02-06T02:19:31.981Z,0.4
2023-02-06T02:24:41.200Z,0.39
2023-02-06T02:29:51.437Z,1.29
2023-02-06T02:35:01.630Z,1.03
2023-02-06T02:40:07.991Z,1.61
2023-02-06T02:45:11.123Z,0.98
2023-02-06T02:50:11.391Z,0.1
2023-02-06T02:55:13.587Z,0.41
2023-02-06T03:00:12.860Z,0.45
2023-02-06T03:05:14.128Z,-0.51
2023-02-06T03:10:20.362Z,0.13
2023-02-06T03:15:24.596Z,-0.09
2023-02-06T03:20:22.883Z,-0.58
2023-02-06T03:25:25.092Z,-0.94
2023-02-06T03:30:23.389Z,-0.64
2023-02-06T03:35:26.578Z,-0.56
2023-02-06T03:40:22.838Z,-0.86
2023-02-06T03:45:24.093Z,-0.15
2023-02-06T03:50:22.354Z,-1.01
2023-02-06T03:55:22.626Z,-0.73
2023-02-06T04:00:19.856Z,-0.68
2023-02-06T04:05:18.157Z,-0.69
2023-02-06T04:10:14.373Z,-0.14
2023-02-06T04:15:10.606Z,0.14
2023-02-06T04:20:06.913Z,0.53
2023-02-06T04:25:03.132Z,1.04
2023-02-06T04:29:59.862Z,0.79
2023-02-06T04:34:55.713Z,0.79
2023-02-06T04:39:51.880Z,-0.69
2023-02-06T04:44:48.182Z,-0.12
2023-02-06T04:49:44.470Z,0.61
2023-02-06T04:54:43.706Z,-0.37
2023-02-06T04:59:39.980Z,-1.03
2023-02-06T05:04:36.205Z,0.16
2023-02-06T05:09:32.464Z,0.77
2023-02-06T05:14:28.749Z,-0.23
2023-02-06T05:19:24.983Z,0.32
2023-02-06T05:24:21.239Z,0.4
2023-02-06T05:29:17.504Z,0.98
2023-02-06T05:34:13.769Z,0.23
2023-02-06T05:39:10.040Z,0.34
2023-02-06T05:44:06.261Z,0.17
2023-02-06T05:49:02.574Z,0.13
2023-02-06T05:53:58.813Z,0.07
2023-02-06T05:58:55.040Z,-0.12
2023-02-06T06:03:51.444Z,0.28
2023-02-06T06:08:47.583Z,0.06
2023-02-06T06:13:43.824Z,-0.37
2023-02-06T06:18:40.087Z,-0.5
2023-02-06T06:23:36.358Z,-1.05
2023-02-06T06:28:32.614Z,-1.26
2023-02-06T06:33:28.870Z,-0.39
2023-02-06T06:38:25.139Z,-0.32
2023-02-06T06:43:21.403Z,0.25
2023-02-06T06:48:17.635Z,-0.46
2023-02-06T06:53:13.926Z,0.37
2023-02-06T06:58:10.179Z,0.25
2023-02-06T07:03:07.472Z,0.46
2023-02-06T07:08:03.681Z,0.16
2023-02-06T07:12:59.938Z,0.74
2023-02-06T07:17:56.193Z,0.84
2023-02-06T07:22:52.443Z,-0.06
2023-02-06T07:27:48.801Z,0.05
2023-02-06T07:32:44.001Z,-0.2
2023-02-06T07:42:44.482Z,-0.82
2023-02-06T07:47:40.759Z,-0.3
2023-02-06T07:52:36.990Z,-0.66
2023-02-06T07:57:32.251Z,-0.55
2023-02-06T08:02:28.498Z,-0.72
2023-02-06T08:07:24.837Z,-0.6
2023-02-06T08:12:20.044Z,0.15
2023-02-06T08:17:17.879Z,-0.18
2023-02-06T08:22:15.563Z,-0.31
2023-02-06T08:27:11.827Z,-0.37
2023-02-06T08:32:08.061Z,-0.22
2023-02-06T08:37:04.346Z,0.6
2023-02-06T08:42:01.571Z,0.69
2023-02-06T08:47:09.677Z,1.09
2023-02-06T08:52:01.097Z,0.94
2023-02-06T08:56:57.328Z,1.47
2023-02-06T09:01:53.583Z,0.92
2023-02-06T09:06:49.902Z,1.09
2023-02-06T09:11:47.173Z,1.4
2023-02-06T09:16:43.384Z,2.21
2023-02-06T09:21:40.615Z,1.98
2023-02-06T09:26:44.838Z,2.11
2023-02-06T09:31:40.213Z,2.72
2023-02-06T09:36:37.420Z,2.87
2023-02-06T09:41:38.651Z,2.1
2023-02-06T09:46:36.926Z,2.88
2023-02-06T09:51:44.112Z,3.02
2023-02-06T09:56:52.365Z,2.89
2023-02-06T10:01:57.654Z,3.22
2023-02-06T10:06:58.855Z,3.41
2023-02-06T10:12:03.085Z,3.93
2023-02-06T10:17:09.369Z,4.08
2023-02-06T10:22:08.683Z,3.88
2023-02-06T10:27:09.815Z,4.51
2023-02-06T10:32:25.070Z,4.89
2023-02-06T10:37:35.272Z,5.07
2023-02-06T10:42:41.462Z,5.44
2023-02-06T10:47:45.777Z,4.94
2023-02-06T10:52:49.977Z,5.22
2023-02-06T10:57:48.236Z,5.62
2023-02-06T11:03:01.367Z,5.69
2023-02-06T11:07:58.705Z,5.94
2023-02-06T11:13:01.987Z,6.11
2023-02-06T11:17:59.225Z,6.24
2023-02-06T11:23:05.432Z,6.16
2023-02-06T11:28:02.730Z,5.38
2023-02-06T11:38:16.175Z,6.8
2023-02-06T11:43:17.420Z,6.06
2023-02-06T11:53:18.942Z,6.68
2023-02-06T11:58:20.145Z,6.75
2023-02-06T12:03:27.381Z,6.76
2023-02-06T12:08:28.645Z,6.26
2023-02-06T12:13:28.911Z,7.44
2023-02-06T12:18:29.176Z,7.53
2023-02-06T12:23:30.367Z,7.55
2023-02-06T12:28:31.634Z,7.34
2023-02-06T12:33:36.904Z,7.18
2023-02-06T12:38:39.107Z,8.4
2023-02-06T12:43:39.379Z,8.5
2023-02-06T12:48:39.622Z,8.35
2023-02-06T12:53:40.861Z,7.5
2023-02-06T12:58:47.097Z,9.99
2023-02-06T13:03:50.371Z,8.43
2023-02-06T13:08:49.595Z,7.75
2023-02-06T13:13:59.854Z,8.6
2023-02-06T13:19:05.132Z,8.34
2023-02-06T13:24:11.280Z,8.75
2023-02-06T13:29:16.558Z,9.53
2023-02-06T13:34:16.786Z,8.37
2023-02-06T13:39:14.030Z,10.17
2023-02-06T13:44:15.245Z,9.47
2023-02-06T13:49:31.473Z,10.68
2023-02-06T13:54:46.746Z,10.36
2023-02-06T13:59:48.943Z,10.4
2023-02-06T14:04:50.216Z,10.26
2023-02-06T14:10:01.399Z,10.4
2023-02-06T14:15:10.703Z,11.59
2023-02-06T14:20:16.872Z,10.44
2023-02-06T14:25:30.127Z,11.45
2023-02-06T14:30:34.390Z,12.04
2023-02-06T14:35:45.562Z,10.8
2023-02-06T14:40:48.801Z,11.28
2023-02-06T14:46:06.287Z,12.65
2023-02-06T14:50:57.257Z,12.36
2023-02-06T14:56:08.559Z,12.05
2023-02-06T15:01:11.768Z,11.59
2023-02-06T15:06:09.015Z,11.33
2023-02-06T15:11:07.246Z,10.04
2023-02-06T15:16:05.517Z,9.03
2023-02-06T15:21:05.770Z,8.33
2023-02-06T15:26:13.009Z,7.88
2023-02-06T15:31:16.317Z,7.25
2023-02-06T15:36:18.502Z,6.49
2023-02-06T15:41:16.739Z,5.04
2023-02-06T15:46:14.094Z,4.33
2023-02-06T15:51:18.249Z,4.73
2023-02-06T15:56:23.479Z,4.18
2023-02-06T16:01:24.781Z,4.22
2023-02-06T16:06:20.987Z,5.64
2023-02-06T16:11:20.247Z,5.62
2023-02-06T16:16:22.557Z,6.38
2023-02-06T16:21:22.765Z,6.41
2023-02-06T16:26:19.964Z,5.98
2023-02-06T16:31:21.350Z,4.95
2023-02-06T16:36:18.453Z,5.9
2023-02-06T16:41:24.741Z,5.19
2023-02-06T16:46:21.022Z,4.13
2023-02-06T16:51:19.221Z,5.43
2023-02-06T16:56:16.496Z,5.33
2023-02-06T17:01:16.779Z,5.32
2023-02-06T17:06:15.005Z,5.48
2023-02-06T17:11:11.236Z,6.41
2023-02-06T17:16:09.613Z,5.48
2023-02-06T17:21:06.760Z,5.99
2023-02-06T17:26:03.019Z,6.1
2023-02-06T17:30:59.428Z,5.13
2023-02-06T17:35:55.568Z,5.27
2023-02-06T17:40:52.782Z,4.81
2023-02-06T17:45:49.050Z,4.54
2023-02-06T17:50:46.324Z,4.19
2023-02-06T17:55:42.596Z,3.58
2023-02-06T18:00:40.812Z,3.38
2023-02-06T18:05:37.364Z,3.23
2023-02-06T18:10:33.343Z,3.47
2023-02-06T18:15:31.787Z,2.82
2023-02-06T18:20:27.877Z,3.71
2023-02-06T18:25:24.111Z,2.98
2023-02-06T18:30:20.426Z,3.23
2023-02-06T18:35:16.640Z,3.07
2023-02-06T18:40:12.898Z,3.77
2023-02-06T18:45:09.162Z,2.7
2023-02-06T18:50:05.482Z,3.45
2023-02-06T18:55:01.696Z,2.77
2023-02-06T18:59:57.920Z,3.1
2023-02-06T19:04:54.215Z,2.57
2023-02-06T19:09:50.483Z,2.67
2023-02-06T19:14:47.690Z,3.11
2023-02-06T19:19:43.966Z,3.26
2023-02-06T19:24:43.234Z,3.53
2023-02-06T19:29:40.498Z,3.55
2023-02-06T19:34:37.728Z,3.37
2023-02-06T19:39:34.979Z,2.98
2023-02-06T19:44:33.275Z,3.38
2023-02-06T19:49:29.532Z,3
2023-02-06T19:54:26.742Z,3.7
2023-02-06T19:59:27.014Z,4
2023-02-06T20:04:24.331Z,4
2023-02-06T20:09:21.574Z,3.92
2023-02-06T20:14:18.862Z,4.44
2023-02-06T20:19:15.023Z,3.75
2023-02-06T20:24:13.333Z,2.98
2023-02-06T20:29:14.555Z,2.83
2023-02-06T20:34:10.838Z,3.45
2023-02-06T20:39:08.063Z,2.77
2023-02-06T20:44:04.349Z,3
2023-02-06T20:49:01.602Z,2.21
2023-02-06T20:53:57.807Z,3.01
2023-02-06T20:58:54.076Z,3.08
2023-02-06T21:03:55.348Z,3.03
2023-02-06T21:08:51.649Z,3.01
2023-02-06T21:13:51.876Z,2.21
2023-02-06T21:18:52.081Z,2.86
2023-02-06T21:23:53.453Z,3.62
2023-02-06T21:28:49.631Z,3
2023-02-06T21:33:50.916Z,3.05
2023-02-06T21:38:47.171Z,3.38
2023-02-06T21:43:47.382Z,3.85
2023-02-06T21:48:43.611Z,2.42
2023-02-06T21:53:40.885Z,2.47
2023-02-06T21:58:36.208Z,2.94
2023-02-06T22:03:36.404Z,2.67
2023-02-06T22:08:32.670Z,3.29
2023-02-06T22:13:32.925Z,3.15
2023-02-06T22:18:30.186Z,3.17
2023-02-06T22:23:30.426Z,3.31
2023-02-06T22:28:30.661Z,3.7
2023-02-06T22:33:31.940Z,3.86
2023-02-06T22:38:32.151Z,3.72
2023-02-06T22:43:33.422Z,4.45
2023-02-06T22:48:33.676Z,3.6
2023-02-06T22:53:33.901Z,4.23
2023-02-06T22:58:34.185Z,3.32
2023-02-06T23:03:34.405Z,3.92
2023-02-06T23:08:35.622Z,3.62
2023-02-06T23:13:35.929Z,0.25
2023-02-06T23:18:36.157Z,1.32
2023-02-06T23:23:32.384Z,2.84
2023-02-06T23:28:28.671Z,3.98
2023-02-06T23:33:24.954Z,3.44
2023-02-06T23:38:21.180Z,1.31
2023-02-06T23:43:17.426Z,1
2023-02-06T23:48:13.696Z,1.87
2023-02-06T23:53:10.028Z,3.36
2023-02-06T23:58:06.213Z,3.06
